Hamburg, Germany

1:58 AM CET on March 26, 2017 (GMT +0100)
Teutonenweg | | Change Station

Elev 59 ft 53.63 °N, 9.97 °E | Updated 4 minutes ago

Patches of Fog
Patches Fog
36.9 °F
Feels Like 37 °F
N
0.0
Wind Variable Wind from North
Gusts 0.6 mph

Today
High -- | Low -- °F
--% Chance of Precip.
Yesterday
High -- | Low -- °F
Precip. -- in
Pressure 30.30 in
Visibility 3.1 miles
Clouds Scattered Clouds 1200 ft
Mostly Cloudy 27000 ft
Windchill 37 °F
Dew Point 36 °F
Humidity 96%
Rainfall 0.00 in
Snow Depth Not available.
7:07 AM 7:44 PM
Waning Crescent, 6% visible
METAR EDDH 260050Z 00000KT 5000 R15/0400V0650N BCFG SCT012 BKN270 02/02 Q1026 TEMPO BKN012
Pressure 30.30 in
Visibility 3.1 miles
Clouds Scattered Clouds 1200 ft
Mostly Cloudy 27000 ft
Windchill 37 °F
Dew Point 36 °F
Humidity 96%
Rainfall 0.00 in
Snow Depth Not available.
7:07 AM 7:44 PM
Waning Crescent, 6% visible
METAR EDDH 260050Z 00000KT 5000 R15/0400V0650N BCFG SCT012 BKN270 02/02 Q1026 TEMPO BKN012

Get Severe Weather Alerts

Thanks for signing up!

Be on the lookout for a verification email in your inbox.

You'll start receiving the daily forecast at 8 AM.

×

10-Day Weather Forecast

×

Almanac

Astronomy

Mar. 26, 2017 Rise Set
Actual Time
Civil Twilight
Nautical Twilight
Astronomical Twilight
Moon
Length of Visible Light
Length of Day
Tomorrow will be .
, % of the Moon is Illuminated

Today's Extremes

Country Highs Country Lows

Community

WunderPhotos

Upload Photos

1,962,540 photos uploaded!

WunderBlog® & News

Nearby

Air Quality

  Air Quality AQ Index Pollutant
Not available.

Snow Depth

Station Depth Elevation

Earthquake Activity

City Distance Mag. Time & Date
Minimum magnitude displayed is 2.5.

Earthquake Activity

City Distance Mag. Time & Date
Minimum magnitude displayed is 2.5.

Coastal Water Temperatures

Place Temperature

Stations

Nearby Weather Stations

Station Location Temp. Windchill Dew Point Humidity Wind Precip. Elev Updated Type